Copper Creek, Canada
Current Conditions -  °F | °C
As of 5:00 PM on Saturday 25 Oct 2014 (Local Time) from CYKA Reporting Station
Overcast Overcast  
Wind Chill: 52°   Ceiling: 16000
Heat Index: 52°   Visibility: 40mi
Dew Point: 39°   Wind: 12mph
Humidity: 62%   Direction: 110°ESE
Pressure: 29.42"   Gusts: NA
Location:  50.8°N, 120.76°W
Report Text: CYKA 260000Z 11010KT 40SM SCT100 BKN160 OVC220 11/04 A2942 RMK AC4AC3CI1 SLP970 DENSITY ALT 1400FT
Loading
Personal Weather Stations






























Interactive Weather Map
Tropical Storm Tracking
New forecast layout! Learn more

10-Day Weather Forecast

Advertisements
Track Severe Weather on mobile